CheckWX is a tool to help pilots better visualize weather data.  It is not intended as a substitute for an official pre-flight weather briefing.

08:17:30 UTC

KRWF METAR
Redwood Falls Municipal Airport
Redwood Falls, Minnesota, USA
Current

25 mins ago

KRWF 230753Z AUTO 33005KT 10SM CLR 04/02 A3014 RMK AO2 SLP213 T00390022
Observed
Apr-23 @ 07:53 UTC
Wind
  • 330° at 5 KTS
Visibility
10 SM
Flight Rules
VFR
Cloud Levels
  • Clear skies
Temperature
C / 39°F
Dewpoint
C / 36°F
Humidity
87%
Altimeter
30.14" Hg
Pressure
1020.62 hPa
Previous

1 hour ago

KRWF 230653Z AUTO 33006KT 10SM CLR 04/03 A3014 RMK AO2 SLP215 T00440028
Observed
Apr-23 @ 06:53 UTC
Wind
  • 330° at 6 KTS
Visibility
10 SM
Flight Rules
VFR
Cloud Levels
  • Clear skies
Temperature
C / 39°F
Dewpoint
C / 37°F
Humidity
93%
Altimeter
30.14" Hg
Pressure
1020.62 hPa
Previous

2 hours ago

KRWF 230553Z AUTO 06004KT 10SM CLR 06/03 A3014 RMK AO2 SLP212 T00560028 10094 20056 400940056 50007
Observed
Apr-23 @ 05:53 UTC
Wind
  • 060° at 4 KTS
Visibility
10 SM
Flight Rules
VFR
Cloud Levels
  • Clear skies
Temperature
C / 43°F
Dewpoint
C / 37°F
Humidity
81%
Altimeter
30.14" Hg
Pressure
1020.62 hPa